createdAt,value
2018-08-10T00:05:19.175Z,21.50
2018-08-10T00:08:00.562Z,21.40
2018-08-10T00:10:48.987Z,21.40
2018-08-10T00:13:26.275Z,21.40
2018-08-10T00:18:44.369Z,21.20
2018-08-10T00:21:18.868Z,21.20
2018-08-10T00:24:02.784Z,21.20
2018-08-10T00:29:20.555Z,21.20
2018-08-10T00:32:02.326Z,21.20
2018-08-10T00:34:35.673Z,21.10
2018-08-10T00:37:24.689Z,21.10
2018-08-10T00:40:26.267Z,21.20
2018-08-10T00:42:55.028Z,21.00
2018-08-10T00:45:23.773Z,20.90
2018-08-10T00:47:52.644Z,20.80
2018-08-10T00:50:21.377Z,20.80
2018-08-10T00:52:50.267Z,20.50
2018-08-10T00:55:19.740Z,20.60
2018-08-10T00:57:49.239Z,20.60
2018-08-10T01:00:20.541Z,20.50
2018-08-10T01:02:49.393Z,20.50
2018-08-10T01:05:18.259Z,20.60
2018-08-10T01:07:47.084Z,20.50
2018-08-10T01:10:17.492Z,20.40
2018-08-10T01:12:52.427Z,20.40
2018-08-10T01:15:26.152Z,20.40
2018-08-10T01:17:59.792Z,20.30
2018-08-10T01:20:33.197Z,20.30
2018-08-10T01:23:09.466Z,20.20
2018-08-10T01:25:50.435Z,20.30
2018-08-10T01:28:23.477Z,20.20
2018-08-10T01:31:02.088Z,20.10
2018-08-10T01:33:38.568Z,20.00
2018-08-10T01:36:12.507Z,19.80
2018-08-10T01:38:45.002Z,19.70
2018-08-10T01:41:17.686Z,19.60
2018-08-10T01:43:50.334Z,19.70
2018-08-10T01:46:22.874Z,19.70
2018-08-10T01:48:56.106Z,19.60
2018-08-10T01:51:31.178Z,19.50
2018-08-10T01:54:03.167Z,19.40
2018-08-10T01:56:37.328Z,19.40
2018-08-10T01:59:11.543Z,19.40
2018-08-10T02:01:46.056Z,19.40
2018-08-10T02:04:19.137Z,19.40
2018-08-10T02:06:54.077Z,19.40
2018-08-10T02:09:27.843Z,19.40
2018-08-10T02:12:02.443Z,19.40
2018-08-10T02:14:35.244Z,19.20
2018-08-10T02:17:08.569Z,19.00
2018-08-10T02:19:41.363Z,19.00
2018-08-10T02:22:16.746Z,18.80
2018-08-10T02:24:51.500Z,18.80
2018-08-10T02:27:25.715Z,18.70
2018-08-10T02:30:07.497Z,18.70
2018-08-10T02:32:42.572Z,18.70
2018-08-10T02:35:17.924Z,18.70
2018-08-10T02:37:53.525Z,18.60
2018-08-10T02:40:26.276Z,18.60
2018-08-10T02:43:01.461Z,18.50
2018-08-10T02:45:34.001Z,18.40
2018-08-10T02:48:10.691Z,18.40
2018-08-10T02:50:41.309Z,18.30
2018-08-10T02:53:16.000Z,18.30
2018-08-10T02:55:50.014Z,18.30
2018-08-10T02:58:29.500Z,18.40
2018-08-10T03:01:02.462Z,18.30
2018-08-10T03:03:34.745Z,18.40
2018-08-10T03:06:07.683Z,18.40
2018-08-10T03:08:40.406Z,18.40
2018-08-10T03:11:09.166Z,18.40
2018-08-10T03:13:38.250Z,18.40
2018-08-10T03:16:07.052Z,18.30
2018-08-10T03:18:35.791Z,18.40
2018-08-10T03:21:04.717Z,18.20
2018-08-10T03:23:33.521Z,18.10
2018-08-10T03:26:02.289Z,18.10
2018-08-10T03:28:31.095Z,17.90
2018-08-10T03:30:59.889Z,17.90
2018-08-10T03:33:28.676Z,17.90
2018-08-10T03:35:57.507Z,18.00
2018-08-10T03:38:26.466Z,17.90
2018-08-10T03:40:55.272Z,17.80
2018-08-10T03:43:24.076Z,17.80
2018-08-10T03:45:52.822Z,17.80
2018-08-10T03:48:21.597Z,17.80
2018-08-10T03:50:50.438Z,17.80
2018-08-10T03:53:19.205Z,17.80
2018-08-10T03:55:48.033Z,17.80
2018-08-10T03:58:16.825Z,17.70
2018-08-10T04:00:45.565Z,17.80
2018-08-10T04:03:14.393Z,17.60
2018-08-10T04:05:43.173Z,17.60
2018-08-10T04:08:11.885Z,17.60
2018-08-10T04:10:40.644Z,17.60
2018-08-10T04:13:09.388Z,17.70
2018-08-10T04:15:38.164Z,17.60
2018-08-10T04:18:06.962Z,17.60
2018-08-10T04:20:35.743Z,17.50
2018-08-10T04:23:04.468Z,17.60
2018-08-10T04:25:33.153Z,17.50
2018-08-10T04:28:01.865Z,17.50
2018-08-10T04:30:30.548Z,17.40
2018-08-10T04:32:59.349Z,17.40
2018-08-10T04:35:28.108Z,17.40
2018-08-10T04:37:56.956Z,17.30
2018-08-10T04:40:25.697Z,17.40
2018-08-10T04:42:54.519Z,17.60
2018-08-10T04:45:23.353Z,17.70
2018-08-10T04:47:52.209Z,17.60
2018-08-10T04:50:20.957Z,17.40
2018-08-10T04:52:49.801Z,17.30
2018-08-10T04:55:18.603Z,17.20
2018-08-10T04:57:47.363Z,17.30
2018-08-10T05:00:16.295Z,17.10
2018-08-10T05:02:45.015Z,17.10
2018-08-10T05:05:13.839Z,17.20
2018-08-10T05:07:42.968Z,17.20
2018-08-10T05:10:11.785Z,17.10
2018-08-10T05:12:40.941Z,17.00
2018-08-10T05:15:10.649Z,17.00
2018-08-10T05:17:39.812Z,17.00
2018-08-10T05:20:09.713Z,17.10
2018-08-10T05:22:38.872Z,17.10
2018-08-10T05:25:07.685Z,17.20
2018-08-10T05:27:36.590Z,17.30
2018-08-10T05:30:06.936Z,17.40
2018-08-10T05:32:35.659Z,17.30
2018-08-10T05:35:05.948Z,17.30
2018-08-10T05:37:34.836Z,17.20
2018-08-10T05:40:03.642Z,17.30
2018-08-10T05:42:32.445Z,17.40
2018-08-10T05:45:01.298Z,17.20
2018-08-10T05:47:30.097Z,17.20
2018-08-10T05:49:58.837Z,17.30
2018-08-10T05:52:27.663Z,17.30
2018-08-10T05:54:56.421Z,17.40
2018-08-10T05:57:25.265Z,17.60
2018-08-10T05:59:54.002Z,17.40
2018-08-10T06:02:22.834Z,17.30
2018-08-10T06:04:51.546Z,17.30
2018-08-10T06:07:20.496Z,17.50
2018-08-10T06:09:49.273Z,17.40
2018-08-10T06:12:18.228Z,17.40
2018-08-10T06:14:46.956Z,17.50
2018-08-10T06:17:15.770Z,17.60
2018-08-10T06:19:44.506Z,17.60
2018-08-10T06:22:13.363Z,17.70
2018-08-10T06:24:42.168Z,17.70
2018-08-10T06:27:10.939Z,17.90
2018-08-10T06:29:39.782Z,17.80
2018-08-10T06:32:08.560Z,18.00
2018-08-10T06:34:37.424Z,17.90
2018-08-10T06:37:06.465Z,18.00
2018-08-10T06:39:35.258Z,18.10
2018-08-10T06:42:04.976Z,18.20
2018-08-10T06:44:34.705Z,18.30
2018-08-10T06:47:03.598Z,18.30
2018-08-10T06:49:32.438Z,18.20
2018-08-10T06:52:01.279Z,18.40
2018-08-10T06:54:30.032Z,18.50
2018-08-10T06:56:58.870Z,18.50
2018-08-10T06:59:27.725Z,18.50
2018-08-10T07:01:56.506Z,18.40
2018-08-10T07:04:25.255Z,18.40
2018-08-10T07:06:54.826Z,18.40
2018-08-10T07:09:23.581Z,18.50
2018-08-10T07:11:52.567Z,18.70
2018-08-10T07:14:21.369Z,18.70
2018-08-10T07:16:50.296Z,18.80
2018-08-10T07:19:19.230Z,18.90
2018-08-10T07:21:48.007Z,18.90
2018-08-10T07:24:17.122Z,18.90
2018-08-10T07:26:45.875Z,18.70
2018-08-10T07:29:21.493Z,18.90
2018-08-10T07:31:50.320Z,18.90
2018-08-10T07:34:19.152Z,19.00
2018-08-10T07:36:48.047Z,18.90
2018-08-10T07:39:16.955Z,19.10
2018-08-10T07:41:45.835Z,19.40
2018-08-10T07:44:14.583Z,19.60
2018-08-10T07:46:43.399Z,19.70
2018-08-10T07:49:12.180Z,19.70
2018-08-10T07:51:41.064Z,19.80
2018-08-10T07:54:09.965Z,20.20
2018-08-10T07:56:38.742Z,20.40
2018-08-10T07:59:08.044Z,20.10
2018-08-10T08:01:36.929Z,20.20
2018-08-10T08:04:05.973Z,20.20
2018-08-10T08:06:35.012Z,20.10
2018-08-10T08:09:04.783Z,20.00
2018-08-10T08:11:34.052Z,20.30
2018-08-10T08:14:02.891Z,20.50
2018-08-10T08:16:31.727Z,20.50
2018-08-10T08:19:01.028Z,20.80
2018-08-10T08:21:29.865Z,21.00
2018-08-10T08:23:58.725Z,21.00
2018-08-10T08:26:27.559Z,21.00
2018-08-10T08:28:56.410Z,21.00
2018-08-10T08:31:25.181Z,21.10
2018-08-10T08:34:03.852Z,21.20
2018-08-10T08:36:32.713Z,21.30
2018-08-10T08:39:12.791Z,21.40
2018-08-10T08:41:41.555Z,21.50
2018-08-10T08:44:31.817Z,21.40
2018-08-10T08:47:01.216Z,21.40
2018-08-10T08:49:30.147Z,21.20
2018-08-10T08:51:58.969Z,21.30
2018-08-10T08:55:05.633Z,21.60
2018-08-10T08:57:35.610Z,21.80
2018-08-10T09:00:09.888Z,21.90
2018-08-10T09:02:38.724Z,22.40
2018-08-10T09:05:09.020Z,22.50
2018-08-10T09:07:38.363Z,22.50
2018-08-10T09:10:10.514Z,22.40
2018-08-10T09:12:39.307Z,22.50
2018-08-10T09:15:10.234Z,22.80
2018-08-10T09:17:39.733Z,23.10
2018-08-10T09:20:09.361Z,23.50
2018-08-10T09:22:38.179Z,23.30
2018-08-10T09:25:09.571Z,23.10
2018-08-10T09:27:38.427Z,22.90
2018-08-10T09:30:08.712Z,23.20
2018-08-10T09:32:37.498Z,23.50
2018-08-10T09:35:07.946Z,23.30
2018-08-10T09:37:36.841Z,23.20
2018-08-10T09:40:11.026Z,23.50
2018-08-10T09:42:40.230Z,24.00
2018-08-10T09:45:09.923Z,24.30
2018-08-10T09:47:38.743Z,24.20
2018-08-10T09:50:08.994Z,24.30
2018-08-10T09:52:37.705Z,24.10
2018-08-10T09:55:23.930Z,24.00
2018-08-10T09:57:55.951Z,23.90
2018-08-10T10:00:30.051Z,23.80
2018-08-10T10:03:04.053Z,23.80
2018-08-10T10:05:32.937Z,24.10
2018-08-10T10:08:01.723Z,24.30
2018-08-10T10:10:31.449Z,24.40
2018-08-10T10:13:00.305Z,24.50
2018-08-10T10:15:29.076Z,24.50
2018-08-10T10:17:57.919Z,24.40
2018-08-10T10:20:26.794Z,24.60
2018-08-10T10:22:55.537Z,24.80
2018-08-10T10:25:24.576Z,24.80
2018-08-10T10:27:53.548Z,24.90
2018-08-10T10:30:22.410Z,25.00
2018-08-10T10:32:51.248Z,25.00
2018-08-10T10:35:20.694Z,24.80
2018-08-10T10:37:49.460Z,24.90
2018-08-10T10:40:18.243Z,25.20
2018-08-10T10:42:47.053Z,25.30
2018-08-10T10:45:16.553Z,24.60
2018-08-10T10:47:46.454Z,24.40
2018-08-10T10:50:15.911Z,24.50
2018-08-10T10:52:44.841Z,24.70
2018-08-10T10:55:13.920Z,24.70
2018-08-10T10:57:43.425Z,24.70
2018-08-10T11:00:34.402Z,24.80
2018-08-10T11:03:03.226Z,25.00
2018-08-10T11:05:32.220Z,25.70
2018-08-10T11:08:01.104Z,25.40
2018-08-10T11:10:29.912Z,24.80
2018-08-10T11:12:58.761Z,25.50
2018-08-10T11:15:27.709Z,23.90
2018-08-10T11:17:56.683Z,24.10
2018-08-10T11:20:25.578Z,24.40
2018-08-10T11:22:54.528Z,24.30
2018-08-10T11:25:23.506Z,24.90
2018-08-10T11:27:52.153Z,25.40
2018-08-10T11:30:20.920Z,25.40
2018-08-10T11:32:49.695Z,25.70
2018-08-10T11:35:18.429Z,25.90
2018-08-10T11:37:47.368Z,25.90
2018-08-10T11:40:16.368Z,25.80
2018-08-10T11:42:45.248Z,25.70
2018-08-10T11:45:16.749Z,26.00
2018-08-10T11:47:45.641Z,25.90
2018-08-10T11:50:14.501Z,26.00
2018-08-10T11:52:43.849Z,26.00
2018-08-10T11:55:14.167Z,26.20
2018-08-10T11:57:43.488Z,26.50
2018-08-10T12:00:13.797Z,26.70
2018-08-10T12:02:42.934Z,27.00
2018-08-10T12:05:12.953Z,26.60
2018-08-10T12:07:41.874Z,26.30
2018-08-10T12:10:10.675Z,25.90
2018-08-10T12:12:39.860Z,25.50
2018-08-10T12:15:10.573Z,25.50
2018-08-10T12:17:40.256Z,25.70
2018-08-10T12:20:10.104Z,25.80
2018-08-10T12:22:39.777Z,26.20
2018-08-10T12:25:08.946Z,26.50
2018-08-10T12:27:37.742Z,26.90
2018-08-10T12:30:07.783Z,27.20
2018-08-10T12:32:36.642Z,27.30
2018-08-10T12:35:05.735Z,27.10
2018-08-10T12:37:34.573Z,26.90
2018-08-10T12:40:03.439Z,26.70
2018-08-10T12:42:32.304Z,26.60
2018-08-10T12:45:01.135Z,26.50
2018-08-10T12:47:29.974Z,26.30
2018-08-10T12:49:58.996Z,26.30
2018-08-10T12:52:27.745Z,26.20
2018-08-10T12:54:56.753Z,25.90
2018-08-10T12:57:25.583Z,25.70
2018-08-10T12:59:54.412Z,25.60
2018-08-10T13:02:23.242Z,25.20
2018-08-10T13:04:52.110Z,25.40
2018-08-10T13:07:21.451Z,26.00
2018-08-10T13:09:51.529Z,26.50
2018-08-10T13:12:20.478Z,26.70
2018-08-10T13:14:49.311Z,26.30
2018-08-10T13:17:18.223Z,26.30
2018-08-10T13:19:47.000Z,26.30
2018-08-10T13:22:15.790Z,26.10
2018-08-10T13:24:44.494Z,25.90
2018-08-10T13:27:13.346Z,25.90
2018-08-10T13:29:42.179Z,26.00
2018-08-10T13:32:10.866Z,25.90
2018-08-10T13:34:41.925Z,25.70
2018-08-10T13:37:11.288Z,25.70
2018-08-10T13:39:40.046Z,25.90
2018-08-10T13:42:08.955Z,25.90
2018-08-10T13:44:37.956Z,26.00
2018-08-10T13:47:06.771Z,26.20
2018-08-10T13:49:35.678Z,26.30
2018-08-10T13:52:04.683Z,26.10
2018-08-10T13:54:33.801Z,26.10
2018-08-10T13:57:02.713Z,25.90
2018-08-10T13:59:31.516Z,25.80
2018-08-10T14:02:00.260Z,25.80
2018-08-10T14:04:30.737Z,25.70
2018-08-10T14:06:59.547Z,25.50
2018-08-10T14:09:28.362Z,25.60
2018-08-10T14:11:57.213Z,25.20
2018-08-10T14:14:25.921Z,25.80
2018-08-10T14:16:54.905Z,25.60
2018-08-10T14:19:23.643Z,25.40
2018-08-10T14:21:52.506Z,25.40
2018-08-10T14:24:21.364Z,25.60
2018-08-10T14:26:50.141Z,25.40
2018-08-10T14:29:19.349Z,25.40
2018-08-10T14:31:48.177Z,25.30
2018-08-10T14:34:17.128Z,25.40
2018-08-10T14:36:45.927Z,25.40
2018-08-10T14:39:14.807Z,25.40
2018-08-10T14:41:43.524Z,25.40
2018-08-10T14:44:12.349Z,25.40
2018-08-10T14:46:41.256Z,25.60
2018-08-10T14:49:10.052Z,25.90
2018-08-10T14:51:45.410Z,26.00
2018-08-10T14:54:48.552Z,25.60
2018-08-10T14:57:17.313Z,25.20
2018-08-10T14:59:46.140Z,25.10
2018-08-10T15:02:14.885Z,25.10
2018-08-10T15:04:43.608Z,25.10
2018-08-10T15:07:12.385Z,25.20
2018-08-10T15:09:41.883Z,25.20
2018-08-10T15:12:10.779Z,25.40
2018-08-10T15:14:39.627Z,25.60
2018-08-10T15:17:08.428Z,25.60
2018-08-10T15:19:37.187Z,25.60
2018-08-10T15:22:06.114Z,25.70
2018-08-10T15:24:34.928Z,25.70
2018-08-10T15:27:03.712Z,25.90
2018-08-10T15:29:32.498Z,26.00
2018-08-10T15:32:01.235Z,25.80
2018-08-10T15:34:30.021Z,25.80
2018-08-10T15:36:58.819Z,25.80
2018-08-10T15:39:28.058Z,25.90
2018-08-10T15:41:57.061Z,26.10
2018-08-10T15:44:25.789Z,26.00
2018-08-10T15:46:54.706Z,26.00
2018-08-10T15:49:23.486Z,26.00
2018-08-10T15:51:52.202Z,26.00
2018-08-10T15:54:21.038Z,26.00
2018-08-10T15:56:49.782Z,26.10
2018-08-10T15:59:18.494Z,26.10
2018-08-10T16:01:47.272Z,25.80
2018-08-10T16:04:16.077Z,25.70
2018-08-10T16:06:44.822Z,25.60
2018-08-10T16:09:13.734Z,25.50
2018-08-10T16:11:42.424Z,25.50
2018-08-10T16:14:11.813Z,25.60
2018-08-10T16:16:40.539Z,25.80
2018-08-10T16:19:09.289Z,26.00
2018-08-10T16:21:38.027Z,26.20
2018-08-10T16:24:07.000Z,26.30
2018-08-10T16:26:35.858Z,26.30
2018-08-10T16:29:10.426Z,26.30
2018-08-10T16:31:39.265Z,26.30
2018-08-10T16:34:08.193Z,26.30
2018-08-10T16:36:37.009Z,26.30
2018-08-10T16:39:08.912Z,26.40
2018-08-10T16:41:37.757Z,26.40
2018-08-10T16:44:06.607Z,26.50
2018-08-10T16:46:35.535Z,26.40
2018-08-10T16:49:04.328Z,26.40
2018-08-10T16:51:33.026Z,26.30
2018-08-10T16:54:01.884Z,26.30
2018-08-10T16:56:30.670Z,26.10
2018-08-10T16:58:59.523Z,26.00
2018-08-10T17:01:28.290Z,25.90
2018-08-10T17:03:57.112Z,26.00
2018-08-10T17:06:25.841Z,26.00
2018-08-10T17:08:54.702Z,25.70
2018-08-10T17:11:23.556Z,25.70
2018-08-10T17:13:52.286Z,25.70
2018-08-10T17:16:21.498Z,25.60
2018-08-10T17:18:50.243Z,25.50
2018-08-10T17:21:19.078Z,25.60
2018-08-10T17:23:48.032Z,25.40
2018-08-10T17:26:16.856Z,25.30
2018-08-10T17:28:45.886Z,25.40
2018-08-10T17:31:14.752Z,25.30
2018-08-10T17:33:43.468Z,25.20
2018-08-10T17:36:12.205Z,25.10
2018-08-10T17:38:40.941Z,25.10
2018-08-10T17:41:09.706Z,25.10
2018-08-10T17:43:38.534Z,24.90
2018-08-10T17:46:07.509Z,24.90
2018-08-10T17:48:36.292Z,24.80
2018-08-10T17:51:05.219Z,24.90
2018-08-10T17:53:33.999Z,24.90
2018-08-10T17:56:02.891Z,24.80
2018-08-10T17:58:31.704Z,24.80
2018-08-10T18:01:05.170Z,24.70
2018-08-10T18:03:33.893Z,24.70
2018-08-10T18:06:02.655Z,24.60
2018-08-10T18:08:31.417Z,24.60
2018-08-10T18:11:00.174Z,24.60
2018-08-10T18:13:28.938Z,24.50
2018-08-10T18:15:57.909Z,24.40
2018-08-10T18:18:26.661Z,24.40
2018-08-10T18:20:55.433Z,24.50
2018-08-10T18:23:24.245Z,24.40
2018-08-10T18:25:53.104Z,24.40
2018-08-10T18:28:21.907Z,24.40
2018-08-10T18:30:50.632Z,24.30
2018-08-10T18:33:19.442Z,24.30
2018-08-10T18:35:48.277Z,24.30
2018-08-10T18:38:17.308Z,24.20
2018-08-10T18:40:46.265Z,24.10
2018-08-10T18:43:15.232Z,23.80
2018-08-10T18:45:44.029Z,23.80
2018-08-10T18:48:12.817Z,23.60
2018-08-10T18:50:41.791Z,23.60
2018-08-10T18:53:10.493Z,23.50
2018-08-10T18:55:39.216Z,23.30
2018-08-10T18:58:08.080Z,23.20
2018-08-10T19:00:41.997Z,23.20
2018-08-10T19:03:10.762Z,23.20
2018-08-10T19:05:39.586Z,23.10
2018-08-10T19:08:08.355Z,23.00
2018-08-10T19:10:37.300Z,22.90
2018-08-10T19:13:06.022Z,22.80
2018-08-10T19:15:34.821Z,22.70
2018-08-10T19:18:03.878Z,22.70
2018-08-10T19:20:32.592Z,22.60
2018-08-10T19:23:01.382Z,22.50
2018-08-10T19:25:30.292Z,22.50
2018-08-10T19:27:59.089Z,22.50
2018-08-10T19:30:27.853Z,22.50
2018-08-10T19:32:56.726Z,22.60
2018-08-10T19:35:25.475Z,22.50
2018-08-10T19:37:54.238Z,22.50
2018-08-10T19:40:22.968Z,22.40
2018-08-10T19:42:51.785Z,22.30
2018-08-10T19:45:20.629Z,22.20
2018-08-10T19:47:49.390Z,22.30
2018-08-10T19:50:22.227Z,22.20
2018-08-10T19:52:51.238Z,22.20
2018-08-10T19:55:20.125Z,22.10
2018-08-10T19:57:48.889Z,22.10
2018-08-10T20:00:18.477Z,22.10
2018-08-10T20:02:53.073Z,22.00
2018-08-10T20:05:25.158Z,22.00
2018-08-10T20:07:54.056Z,21.90
2018-08-10T20:10:22.878Z,21.90
2018-08-10T20:12:51.665Z,21.90
2018-08-10T20:15:20.534Z,21.90
2018-08-10T20:17:49.193Z,21.80
2018-08-10T20:20:19.208Z,21.60
2018-08-10T20:22:48.201Z,21.60
2018-08-10T20:25:17.162Z,21.60
2018-08-10T20:27:46.006Z,21.50
2018-08-10T20:30:16.509Z,21.50
2018-08-10T20:32:45.629Z,21.30
2018-08-10T20:35:16.274Z,21.30
2018-08-10T20:37:45.035Z,21.30
2018-08-10T20:40:15.734Z,21.30
2018-08-10T20:42:44.561Z,21.30
2018-08-10T20:45:13.601Z,21.40
2018-08-10T20:47:42.709Z,21.30
2018-08-10T20:50:15.059Z,21.40
2018-08-10T20:52:44.507Z,21.40
2018-08-10T20:55:13.444Z,21.40
2018-08-10T20:57:42.675Z,21.30
2018-08-10T21:00:12.069Z,21.20
2018-08-10T21:02:42.393Z,21.30
2018-08-10T21:05:11.508Z,21.20
2018-08-10T21:07:40.318Z,21.00
2018-08-10T21:10:11.962Z,20.80
2018-08-10T21:12:41.387Z,20.70
2018-08-10T21:15:11.594Z,20.80
2018-08-10T21:17:41.347Z,20.70
2018-08-10T21:20:11.959Z,20.70
2018-08-10T21:22:40.739Z,20.70
2018-08-10T21:25:10.358Z,20.80
2018-08-10T21:27:39.756Z,20.80
2018-08-10T21:30:11.542Z,20.80
2018-08-10T21:32:40.367Z,20.80
2018-08-10T21:35:09.278Z,20.70
2018-08-10T21:37:38.213Z,20.70
2018-08-10T21:40:08.201Z,20.70
2018-08-10T21:42:37.045Z,20.70
2018-08-10T21:45:06.378Z,20.70
2018-08-10T21:47:35.183Z,20.60
2018-08-10T21:50:04.134Z,20.60
2018-08-10T21:52:32.846Z,20.60
2018-08-10T21:55:01.652Z,20.50
2018-08-10T21:57:30.510Z,20.50
2018-08-10T21:59:59.287Z,20.50
2018-08-10T22:02:28.183Z,20.50
2018-08-10T22:04:57.063Z,20.50
2018-08-10T22:07:25.852Z,20.50
2018-08-10T22:09:54.638Z,20.40
2018-08-10T22:12:23.437Z,20.40
2018-08-10T22:14:57.542Z,20.40
2018-08-10T22:17:31.478Z,20.40
2018-08-10T22:20:01.428Z,20.40
2018-08-10T22:22:31.575Z,20.40
2018-08-10T22:25:00.393Z,20.40
2018-08-10T22:27:29.209Z,20.40
2018-08-10T22:29:58.088Z,20.30
2018-08-10T22:32:26.880Z,20.30
2018-08-10T22:34:55.620Z,20.20
2018-08-10T22:37:24.352Z,20.10
2018-08-10T22:39:53.202Z,20.00
2018-08-10T22:42:21.939Z,19.90
2018-08-10T22:44:50.778Z,19.80
2018-08-10T22:47:19.602Z,19.70
2018-08-10T22:49:48.479Z,19.80
2018-08-10T22:52:17.174Z,19.80
2018-08-10T22:54:46.133Z,19.80
2018-08-10T22:57:15.029Z,19.80
2018-08-10T22:59:43.740Z,19.60
2018-08-10T23:02:12.477Z,19.60
2018-08-10T23:04:41.324Z,19.50
2018-08-10T23:07:10.127Z,21.50
2018-08-10T23:09:38.908Z,19.30
2018-08-10T23:12:07.718Z,19.30
2018-08-10T23:14:36.563Z,19.30
2018-08-10T23:17:05.332Z,19.30
2018-08-10T23:19:34.220Z,19.30
2018-08-10T23:22:02.997Z,19.10
2018-08-10T23:24:31.808Z,19.10
2018-08-10T23:27:00.501Z,19.10
2018-08-10T23:29:29.180Z,19.10
2018-08-10T23:31:57.995Z,19.20
2018-08-10T23:34:26.765Z,19.20
2018-08-10T23:36:55.494Z,19.20
2018-08-10T23:39:24.349Z,19.10
2018-08-10T23:41:53.127Z,19.00
2018-08-10T23:44:21.926Z,18.90
2018-08-10T23:46:50.685Z,18.90
2018-08-10T23:49:19.430Z,18.80
2018-08-10T23:51:48.255Z,18.90
2018-08-10T23:54:17.019Z,18.90
2018-08-10T23:56:45.760Z,18.90
2018-08-10T23:59:14.564Z,18.70
